Accueil
METAR-TAF:

METAR-TAF

Aéroports :

Aéroport international de Koweït

Koweït, Koweït

latitude: 29-13N, longitude: 047-59E, altitude: 55 m

Observation

Le bulletin a été fait il y a 58 minutes, à 11:00 UTC
Vent 12 kt de nord
Température 28°C
Humidité 11%
Pression 1017 hPa
Visibilité 10 km ou plus
pas de nuages en-dessous de 1500 mètres et pas de cumulonimbus.

METAR: OKBK 231100Z 35012KT CAVOK 28/M05 Q1017 NOSIG

Heure: 14:58 (11:58 UTC)

Prévision

Le bulletin a été fait il y a 1 heure et 13 minutes, à 10:45 UTC
Prévision valable du 23 à 12 UTC au 24 à 18 UTC
Vent 14 kt de nord/nord-ouest
Visibilité 10 km ou plus
pas de nuages en-dessous de 1500 mètres et pas de cumulonimbus.

TAF: OKBK 231045Z 2312/2418 34014KT CAVOK

Observations et prévisions météorologiques de plus de 4000 aéroports (messages METAR et TAF).

Les stations disponibles sont représentées par des disques jaunes et rouges sur la carte.

Passer la souris dessus pour voir le nom de la station.

Cliquer dessus pour voir les observations et prévisions météorologiques.

Pour changer de carte: cliquez sur les boutons verts avec une croix noire pour zoomer, sur le bouton vert avec un tiret pour effectuer un zoom arrière, ou sur les flèches vertes pour les cartes adjacentes.


METAR-TAF: